METAR Luftfahrt Wetterdaten     LSZH Zürich Airport
Temperatur
26°C Temperatur
13°C Taupunkt
45% Feuchtigkeit



Wind
24 KM/h
15 MPS
7 M/S
13 KTS



40°
NO
Aktuelle Wetterlage

Teilweise bewölkt Teilweise bewölkt
Luftdruck 1013.88 (hPa) - 29.94 (inHg)
Sichtweite 6 (Meile) - 9.7 (Km)
Flughafen
Flughafen Code LSZH

Position : Zürich Airport
Entfernung: 60 (Km)

Metar:
LSZH 241620Z 04013KT 9999 FEW055 26/13 Q1014 NOSIG

Zeit: 24-06-2024 18:20 CEST